createdAt,value
2018-11-06T00:00:22.891Z,19.70
2018-11-06T00:01:22.900Z,19.60
2018-11-06T00:02:22.896Z,20.40
2018-11-06T00:03:22.884Z,19.80
2018-11-06T00:04:23.085Z,19.10
2018-11-06T00:05:22.882Z,19.20
2018-11-06T00:06:22.888Z,21.30
2018-11-06T00:07:22.876Z,22.10
2018-11-06T00:08:22.881Z,20.40
2018-11-06T00:09:22.962Z,18.80
2018-11-06T00:10:22.874Z,17.80
2018-11-06T00:11:23.084Z,19.30
2018-11-06T00:12:22.876Z,21.10
2018-11-06T00:13:23.083Z,18.70
2018-11-06T00:14:22.886Z,19.40
2018-11-06T00:15:22.860Z,21.40
2018-11-06T00:16:22.858Z,20.60
2018-11-06T00:17:22.858Z,20.80
2018-11-06T00:18:23.070Z,20.10
2018-11-06T00:19:23.064Z,19.90
2018-11-06T00:20:22.849Z,20.00
2018-11-06T00:21:23.052Z,19.80
2018-11-06T00:22:22.863Z,19.40
2018-11-06T00:23:22.856Z,18.40
2018-11-06T00:24:22.853Z,19.20
2018-11-06T00:25:23.046Z,18.30
2018-11-06T00:26:22.835Z,20.10
2018-11-06T00:27:23.039Z,19.60
2018-11-06T00:28:22.845Z,20.70
2018-11-06T00:29:22.833Z,20.80
2018-11-06T00:30:22.830Z,21.80
2018-11-06T00:31:22.824Z,22.10
2018-11-06T00:32:22.824Z,20.80
2018-11-06T00:33:23.026Z,20.70
2018-11-06T00:34:22.947Z,20.80
2018-11-06T00:35:22.820Z,20.40
2018-11-06T00:36:22.829Z,18.90
2018-11-06T00:37:22.820Z,18.20
2018-11-06T00:38:22.811Z,18.70
2018-11-06T00:39:22.825Z,19.70
2018-11-06T00:40:22.807Z,20.00
2018-11-06T00:41:23.012Z,20.50
2018-11-06T00:42:22.802Z,21.70
2018-11-06T00:43:22.801Z,18.90
2018-11-06T00:44:22.807Z,18.90
2018-11-06T00:45:22.996Z,19.60
2018-11-06T00:46:22.793Z,19.50
2018-11-06T00:47:22.802Z,19.10
2018-11-06T00:48:22.786Z,19.70
2018-11-06T00:49:22.806Z,19.80
2018-11-06T00:50:22.795Z,19.40
2018-11-06T00:51:22.978Z,21.70
2018-11-06T00:52:22.784Z,20.40
2018-11-06T00:53:22.775Z,20.40
2018-11-06T00:54:22.773Z,20.20
2018-11-06T00:55:22.972Z,19.80
2018-11-06T00:56:22.764Z,19.80
2018-11-06T00:57:22.763Z,18.00
2018-11-06T00:58:22.761Z,17.30
2018-11-06T00:59:22.758Z,17.20
2018-11-06T01:00:22.759Z,18.00
2018-11-06T01:01:22.753Z,18.50
2018-11-06T01:02:22.987Z,19.30
2018-11-06T01:03:22.758Z,18.30
2018-11-06T01:04:22.951Z,18.60
2018-11-06T01:05:22.744Z,16.90
2018-11-06T01:06:22.758Z,17.40
2018-11-06T01:07:22.740Z,15.90
2018-11-06T01:08:22.738Z,17.00
2018-11-06T01:09:22.937Z,17.20
2018-11-06T01:10:22.932Z,16.40
2018-11-06T01:11:22.744Z,18.20
2018-11-06T01:12:22.944Z,19.10
2018-11-06T01:13:22.722Z,18.40
2018-11-06T01:14:22.923Z,17.50
2018-11-06T01:15:22.729Z,17.30
2018-11-06T01:16:22.919Z,16.90
2018-11-06T01:17:22.736Z,16.60
2018-11-06T01:18:22.711Z,18.10
2018-11-06T01:19:22.908Z,17.60
2018-11-06T01:20:22.710Z,18.30
2018-11-06T01:21:22.715Z,17.30
2018-11-06T01:22:22.912Z,18.60
2018-11-06T01:23:22.708Z,19.20
2018-11-06T01:24:22.703Z,20.90
2018-11-06T01:25:22.701Z,18.90
2018-11-06T01:26:22.689Z,17.90
2018-11-06T01:27:22.696Z,15.50
2018-11-06T01:28:22.917Z,16.80
2018-11-06T01:29:22.685Z,15.90
2018-11-06T01:30:22.679Z,17.00
2018-11-06T01:31:22.685Z,16.80
2018-11-06T01:32:22.674Z,17.70
2018-11-06T01:33:22.669Z,18.50
2018-11-06T01:34:22.870Z,18.20
2018-11-06T01:35:22.661Z,19.40
2018-11-06T01:36:22.673Z,19.30
2018-11-06T01:37:22.671Z,19.10
2018-11-06T01:38:22.675Z,18.90
2018-11-06T01:39:22.664Z,20.40
2018-11-06T01:40:22.663Z,19.80
2018-11-06T01:41:22.645Z,21.50
2018-11-06T01:42:22.649Z,17.70
2018-11-06T01:43:22.642Z,17.50
2018-11-06T01:44:22.848Z,15.30
2018-11-06T01:45:22.847Z,14.10
2018-11-06T01:46:22.838Z,15.00
2018-11-06T01:47:22.642Z,15.60
2018-11-06T01:48:22.642Z,17.50
2018-11-06T01:49:22.842Z,18.70
2018-11-06T01:50:22.823Z,18.50
2018-11-06T01:51:22.832Z,18.00
2018-11-06T01:52:22.615Z,17.40
2018-11-06T01:53:22.629Z,15.70
2018-11-06T01:54:22.620Z,15.90
2018-11-06T01:55:22.615Z,16.70
2018-11-06T01:56:22.618Z,17.10
2018-11-06T01:57:22.839Z,17.50
2018-11-06T01:58:22.617Z,18.10
2018-11-06T01:59:22.801Z,18.10
2018-11-06T02:00:22.606Z,18.80
2018-11-06T02:01:22.609Z,19.70
2018-11-06T02:02:22.611Z,21.30
2018-11-06T02:03:22.598Z,22.10
2018-11-06T02:04:22.794Z,21.00
2018-11-06T02:05:22.592Z,20.20
2018-11-06T02:06:22.602Z,21.00
2018-11-06T02:07:22.596Z,21.70
2018-11-06T02:08:22.599Z,20.20
2018-11-06T02:09:22.775Z,19.80
2018-11-06T02:10:22.567Z,17.20
2018-11-06T02:11:22.581Z,16.70
2018-11-06T02:12:22.779Z,16.00
2018-11-06T02:13:22.559Z,17.10
2018-11-06T02:14:22.571Z,17.00
2018-11-06T02:15:22.551Z,17.20
2018-11-06T02:16:22.582Z,19.40
2018-11-06T02:17:22.555Z,20.00
2018-11-06T02:18:22.554Z,20.60
2018-11-06T02:19:22.548Z,20.10
2018-11-06T02:20:22.562Z,17.90
2018-11-06T02:21:22.534Z,15.80
2018-11-06T02:22:22.531Z,18.80
2018-11-06T02:23:22.740Z,18.00
2018-11-06T02:24:22.740Z,18.40
2018-11-06T02:25:22.536Z,18.30
2018-11-06T02:26:22.537Z,17.70
2018-11-06T02:27:22.532Z,18.20
2018-11-06T02:28:22.522Z,18.90
2018-11-06T02:29:22.523Z,18.80
2018-11-06T02:30:22.525Z,17.40
2018-11-06T02:31:22.503Z,19.30
2018-11-06T02:32:22.512Z,18.20
2018-11-06T02:33:22.498Z,16.70
2018-11-06T02:34:22.511Z,17.10
2018-11-06T02:35:22.507Z,17.20
2018-11-06T02:36:22.504Z,17.10
2018-11-06T02:37:22.490Z,18.10
2018-11-06T02:38:22.486Z,19.20
2018-11-06T02:39:22.683Z,20.00
2018-11-06T02:40:22.479Z,20.30
2018-11-06T02:41:22.476Z,20.90
2018-11-06T02:42:22.484Z,19.30
2018-11-06T02:43:22.469Z,18.50
2018-11-06T02:44:22.485Z,15.80
2018-11-06T02:45:22.477Z,16.60
2018-11-06T02:46:22.462Z,16.20
2018-11-06T02:47:22.458Z,16.40
2018-11-06T02:48:22.454Z,16.40
2018-11-06T02:49:22.466Z,16.90
2018-11-06T02:50:22.449Z,16.00
2018-11-06T02:51:22.460Z,15.50
2018-11-06T02:52:22.645Z,16.00
2018-11-06T02:53:22.644Z,18.10
2018-11-06T02:54:22.447Z,18.50
2018-11-06T02:55:22.451Z,18.70
2018-11-06T02:56:22.446Z,19.70
2018-11-06T02:57:22.455Z,18.90
2018-11-06T02:58:22.439Z,19.30
2018-11-06T02:59:22.433Z,18.30
2018-11-06T03:00:22.432Z,18.20
2018-11-06T03:01:22.417Z,19.30
2018-11-06T03:02:22.440Z,19.50
2018-11-06T03:03:22.411Z,19.70
2018-11-06T03:04:22.615Z,20.00
2018-11-06T03:05:22.406Z,20.70
2018-11-06T03:06:22.617Z,21.80
2018-11-06T03:07:22.399Z,24.70
2018-11-06T03:08:22.427Z,24.30
2018-11-06T03:09:22.404Z,25.10
2018-11-06T03:10:22.476Z,23.80
2018-11-06T03:11:22.597Z,25.20
2018-11-06T03:12:22.395Z,25.10
2018-11-06T03:13:22.584Z,24.80
2018-11-06T03:14:22.397Z,27.60
2018-11-06T03:15:22.602Z,27.30
2018-11-06T03:16:22.374Z,27.40
2018-11-06T03:17:22.396Z,26.00
2018-11-06T03:18:22.382Z,25.10
2018-11-06T03:19:22.590Z,26.60
2018-11-06T03:20:22.361Z,27.20
2018-11-06T03:21:22.381Z,27.40
2018-11-06T03:22:22.357Z,27.20
2018-11-06T03:23:22.352Z,26.10
2018-11-06T03:24:22.349Z,26.60
2018-11-06T03:25:22.370Z,26.50
2018-11-06T03:26:22.368Z,27.00
2018-11-06T03:27:22.355Z,26.40
2018-11-06T03:28:22.371Z,27.90
2018-11-06T03:29:22.339Z,29.40
2018-11-06T03:30:22.337Z,26.00
2018-11-06T03:31:22.333Z,25.10
2018-11-06T03:32:22.340Z,24.10
2018-11-06T03:33:22.329Z,24.20
2018-11-06T03:34:22.527Z,24.60
2018-11-06T03:35:22.326Z,24.10
2018-11-06T03:36:22.323Z,24.90
2018-11-06T03:37:22.519Z,24.60
2018-11-06T03:38:22.343Z,26.10
2018-11-06T03:39:22.310Z,26.40
2018-11-06T03:40:22.512Z,26.30
2018-11-06T03:41:22.321Z,26.50
2018-11-06T03:42:22.302Z,24.50
2018-11-06T03:43:22.332Z,23.10
2018-11-06T03:44:22.297Z,23.30
2018-11-06T03:45:22.299Z,23.60
2018-11-06T03:46:22.498Z,23.50
2018-11-06T03:47:22.301Z,23.50
2018-11-06T03:48:22.316Z,23.40
2018-11-06T03:49:22.297Z,24.40
2018-11-06T03:50:22.510Z,24.20
2018-11-06T03:51:22.290Z,24.60
2018-11-06T03:52:22.291Z,24.00
2018-11-06T03:53:22.296Z,24.90
2018-11-06T03:54:22.275Z,25.40
2018-11-06T03:55:22.286Z,26.40
2018-11-06T03:56:22.471Z,26.80
2018-11-06T03:57:22.279Z,28.10
2018-11-06T03:58:22.263Z,28.50
2018-11-06T03:59:22.464Z,27.00
2018-11-06T04:00:22.285Z,27.80
2018-11-06T04:01:22.262Z,27.30
2018-11-06T04:02:22.254Z,27.10
2018-11-06T04:03:22.263Z,26.60
2018-11-06T04:04:22.462Z,26.20
2018-11-06T04:05:22.247Z,25.50
2018-11-06T04:06:22.255Z,25.60
2018-11-06T04:07:22.247Z,25.70
2018-11-06T04:08:22.250Z,26.30
2018-11-06T04:09:22.251Z,25.90
2018-11-06T04:10:22.454Z,26.20
2018-11-06T04:11:22.445Z,25.20
2018-11-06T04:12:22.232Z,25.30
2018-11-06T04:13:22.230Z,25.90
2018-11-06T04:14:22.227Z,24.40
2018-11-06T04:15:22.222Z,25.10
2018-11-06T04:16:22.232Z,25.00
2018-11-06T04:17:22.218Z,24.50
2018-11-06T04:18:22.220Z,25.60
2018-11-06T04:19:22.412Z,26.30
2018-11-06T04:20:22.210Z,25.60
2018-11-06T04:21:22.411Z,26.10
2018-11-06T04:22:22.207Z,25.60
2018-11-06T04:23:22.408Z,25.00
2018-11-06T04:24:22.210Z,23.00
2018-11-06T04:25:22.216Z,24.20
2018-11-06T04:26:22.210Z,23.80
2018-11-06T04:27:22.204Z,22.70
2018-11-06T04:28:22.195Z,22.50
2018-11-06T04:29:22.194Z,23.50
2018-11-06T04:30:22.215Z,20.60
2018-11-06T04:31:22.202Z,20.40
2018-11-06T04:32:22.189Z,20.90
2018-11-06T04:33:22.183Z,20.80
2018-11-06T04:34:22.193Z,19.60
2018-11-06T04:35:22.181Z,20.00
2018-11-06T04:36:22.203Z,20.90
2018-11-06T04:37:22.186Z,23.40
2018-11-06T04:38:22.172Z,24.40
2018-11-06T04:39:22.180Z,23.10
2018-11-06T04:40:22.177Z,24.20
2018-11-06T04:41:22.177Z,23.00
2018-11-06T04:42:22.173Z,22.80
2018-11-06T04:43:22.159Z,23.20
2018-11-06T04:44:22.177Z,23.40
2018-11-06T04:45:22.167Z,25.30
2018-11-06T04:46:22.362Z,26.10
2018-11-06T04:47:22.149Z,24.90
2018-11-06T04:48:22.166Z,25.10
2018-11-06T04:49:22.160Z,26.50
2018-11-06T04:50:22.157Z,27.10
2018-11-06T04:51:22.138Z,24.50
2018-11-06T04:52:22.158Z,24.90
2018-11-06T04:53:22.145Z,25.30
2018-11-06T04:54:22.158Z,24.40
2018-11-06T04:55:22.144Z,24.70
2018-11-06T04:56:22.346Z,23.00
2018-11-06T04:57:22.127Z,24.10
2018-11-06T04:58:22.136Z,24.80
2018-11-06T04:59:22.336Z,23.50
2018-11-06T05:00:22.132Z,23.00
2018-11-06T05:01:22.118Z,21.90
2018-11-06T05:02:22.215Z,21.80
2018-11-06T05:03:22.126Z,22.00
2018-11-06T05:04:22.125Z,21.70
2018-11-06T05:05:22.114Z,24.00
2018-11-06T05:06:22.116Z,23.00
2018-11-06T05:07:22.104Z,20.90
2018-11-06T05:08:22.101Z,20.30
2018-11-06T05:09:22.098Z,20.90
2018-11-06T05:10:22.148Z,18.80
2018-11-06T05:11:22.097Z,19.40
2018-11-06T05:12:22.120Z,20.10
2018-11-06T05:13:22.111Z,20.10
2018-11-06T05:14:22.219Z,19.80
2018-11-06T05:15:22.095Z,18.40
2018-11-06T05:16:22.087Z,19.40
2018-11-06T05:17:22.091Z,18.90
2018-11-06T05:18:22.087Z,17.90
2018-11-06T05:19:22.299Z,17.70
2018-11-06T05:20:22.077Z,19.10
2018-11-06T05:21:22.076Z,19.60
2018-11-06T05:22:22.072Z,18.20
2018-11-06T05:23:22.091Z,17.60
2018-11-06T05:24:22.276Z,18.90
2018-11-06T05:25:22.123Z,19.00
2018-11-06T05:26:22.084Z,17.90
2018-11-06T05:27:22.284Z,18.30
2018-11-06T05:28:22.060Z,17.50
2018-11-06T05:29:22.068Z,19.60
2018-11-06T05:30:22.057Z,19.60
2018-11-06T05:31:22.255Z,21.10
2018-11-06T05:32:22.048Z,20.10
2018-11-06T05:33:22.047Z,20.50
2018-11-06T05:34:22.043Z,21.00
2018-11-06T05:35:22.043Z,20.40
2018-11-06T05:36:22.038Z,19.70
2018-11-06T05:37:22.055Z,19.40
2018-11-06T05:38:22.034Z,17.70
2018-11-06T05:39:22.078Z,17.20
2018-11-06T05:40:22.042Z,17.00
2018-11-06T05:41:22.237Z,17.90
2018-11-06T05:42:22.230Z,18.40
2018-11-06T05:43:22.020Z,18.00
2018-11-06T05:44:22.019Z,17.30
2018-11-06T05:45:22.233Z,17.50
2018-11-06T05:46:22.017Z,17.40
2018-11-06T05:47:22.015Z,16.40
2018-11-06T05:48:22.013Z,17.30
2018-11-06T05:49:22.011Z,18.00
2018-11-06T05:50:22.004Z,18.20
2018-11-06T05:51:22.002Z,19.90
2018-11-06T05:52:22.009Z,20.80
2018-11-06T05:53:22.177Z,21.50
2018-11-06T05:54:22.210Z,19.30
2018-11-06T05:55:21.992Z,20.20
2018-11-06T05:56:21.999Z,20.60
2018-11-06T05:57:21.986Z,19.90
2018-11-06T05:58:21.995Z,21.00
2018-11-06T05:59:21.984Z,21.10
2018-11-06T06:00:22.043Z,19.90
2018-11-06T06:01:21.976Z,19.40
2018-11-06T06:02:21.994Z,18.70
2018-11-06T06:03:21.977Z,18.90
2018-11-06T06:04:21.969Z,16.20
2018-11-06T06:05:21.977Z,15.60
2018-11-06T06:06:21.975Z,17.40
2018-11-06T06:07:21.964Z,17.10
2018-11-06T06:08:21.963Z,17.90
2018-11-06T06:09:22.161Z,18.00
2018-11-06T06:10:21.964Z,18.00
2018-11-06T06:11:21.951Z,17.60
2018-11-06T06:12:21.973Z,17.80
2018-11-06T06:14:21.959Z,19.80
2018-11-06T06:15:21.955Z,20.20
2018-11-06T06:16:21.941Z,20.90
2018-11-06T06:17:22.071Z,21.30
2018-11-06T06:18:21.937Z,21.30
2018-11-06T06:19:21.967Z,21.40
2018-11-06T06:20:21.927Z,23.00
2018-11-06T06:21:22.129Z,21.70
2018-11-06T06:22:21.944Z,21.00
2018-11-06T06:23:21.938Z,21.20
2018-11-06T06:24:21.917Z,20.70
2018-11-06T06:25:21.926Z,20.40
2018-11-06T06:26:21.921Z,20.40
2018-11-06T06:27:21.915Z,19.50
2018-11-06T06:28:22.020Z,20.30
2018-11-06T06:29:22.140Z,20.50
2018-11-06T06:30:22.104Z,20.50
2018-11-06T06:31:21.895Z,21.90
2018-11-06T06:32:21.895Z,22.40
2018-11-06T06:33:21.900Z,21.70
2018-11-06T06:34:21.904Z,20.80
2018-11-06T06:35:21.902Z,21.50
2018-11-06T06:36:21.896Z,20.30
2018-11-06T06:37:22.098Z,20.80
2018-11-06T06:38:21.879Z,19.70
2018-11-06T06:39:21.907Z,20.20
2018-11-06T06:40:21.873Z,20.20
2018-11-06T06:41:21.872Z,19.80
2018-11-06T06:42:21.871Z,19.70
2018-11-06T06:43:21.866Z,20.60
2018-11-06T06:44:21.861Z,19.90
2018-11-06T06:45:22.059Z,20.60
2018-11-06T06:46:21.866Z,20.80
2018-11-06T06:47:21.873Z,20.70
2018-11-06T06:48:21.850Z,19.70
2018-11-06T06:49:21.846Z,18.80
2018-11-06T06:50:21.843Z,19.90
2018-11-06T06:51:21.844Z,20.30
2018-11-06T06:52:21.853Z,19.50
2018-11-06T06:53:21.851Z,18.70
2018-11-06T06:54:22.189Z,20.00
2018-11-06T06:55:21.853Z,19.30
2018-11-06T06:56:21.826Z,18.90
2018-11-06T06:57:21.825Z,18.30
2018-11-06T06:58:22.022Z,18.60
2018-11-06T06:59:21.818Z,17.50
2018-11-06T07:00:21.827Z,18.80
2018-11-06T07:01:22.017Z,18.40
2018-11-06T07:02:21.815Z,18.80
2018-11-06T07:03:21.821Z,19.00
2018-11-06T07:04:21.810Z,17.60
2018-11-06T07:05:21.804Z,15.90
2018-11-06T07:06:21.809Z,13.60
2018-11-06T07:07:21.996Z,13.10
2018-11-06T07:08:21.808Z,12.90
2018-11-06T07:09:21.816Z,14.00
2018-11-06T07:10:21.820Z,14.60
2018-11-06T07:11:21.812Z,16.30
2018-11-06T07:12:21.802Z,15.00
2018-11-06T07:13:21.782Z,14.30
2018-11-06T07:14:21.811Z,15.00
2018-11-06T07:15:21.773Z,13.60
2018-11-06T07:16:21.771Z,14.30
2018-11-06T07:17:21.781Z,16.50
2018-11-06T07:18:21.767Z,16.20
2018-11-06T07:19:21.781Z,14.60
2018-11-06T07:20:21.961Z,14.30
2018-11-06T07:21:21.960Z,14.40
2018-11-06T07:22:21.956Z,14.10
2018-11-06T07:23:21.754Z,15.30
2018-11-06T07:24:21.746Z,15.30
2018-11-06T07:25:21.747Z,14.90
2018-11-06T07:26:21.743Z,13.60
2018-11-06T07:27:21.735Z,14.60
2018-11-06T07:28:21.736Z,13.50
2018-11-06T07:29:21.732Z,14.80
2018-11-06T07:30:21.734Z,15.70
2018-11-06T07:31:21.728Z,16.00
2018-11-06T07:32:21.725Z,16.40
2018-11-06T07:33:21.732Z,16.50
2018-11-06T07:34:21.730Z,16.00
2018-11-06T07:35:21.831Z,18.70
2018-11-06T07:36:21.717Z,18.10
2018-11-06T07:37:21.914Z,17.70
2018-11-06T07:38:21.713Z,19.40
2018-11-06T07:39:21.906Z,19.30
2018-11-06T07:40:21.834Z,17.40
2018-11-06T07:41:21.900Z,17.00
2018-11-06T07:42:21.899Z,16.90
2018-11-06T07:43:21.893Z,16.60
2018-11-06T07:44:21.721Z,18.50
2018-11-06T07:45:21.689Z,18.50
2018-11-06T07:46:21.684Z,18.50
2018-11-06T07:47:21.680Z,18.70
2018-11-06T07:48:21.676Z,19.50
2018-11-06T07:49:21.673Z,20.60
2018-11-06T07:50:21.774Z,18.90
2018-11-06T07:51:21.669Z,20.50
2018-11-06T07:52:21.668Z,19.50
2018-11-06T07:53:21.668Z,20.30
2018-11-06T07:54:21.660Z,18.70
2018-11-06T07:55:21.656Z,20.40
2018-11-06T07:56:22.006Z,21.20
2018-11-06T07:57:21.656Z,21.10
2018-11-06T07:58:21.648Z,21.10
2018-11-06T07:59:21.644Z,22.20
2018-11-06T08:00:21.647Z,22.60
2018-11-06T08:01:21.640Z,23.10
2018-11-06T08:02:21.653Z,23.20
2018-11-06T08:03:21.639Z,23.20
2018-11-06T08:04:21.666Z,22.80
2018-11-06T08:05:21.647Z,22.60
2018-11-06T08:06:21.641Z,22.20
2018-11-06T08:07:21.634Z,21.30
2018-11-06T08:08:21.839Z,20.60
2018-11-06T08:09:21.623Z,21.30
2018-11-06T08:10:21.821Z,20.00
2018-11-06T08:11:21.613Z,21.70
2018-11-06T08:12:21.637Z,22.90
2018-11-06T08:13:21.809Z,23.30
2018-11-06T08:14:21.845Z,24.60
2018-11-06T08:15:21.617Z,25.40
2018-11-06T08:16:21.611Z,28.70
2018-11-06T08:17:21.622Z,28.20
2018-11-06T08:18:21.597Z,29.50
2018-11-06T08:19:21.592Z,28.20
2018-11-06T08:20:21.619Z,29.20
2018-11-06T08:21:21.621Z,27.70
2018-11-06T08:22:21.602Z,28.80
2018-11-06T08:23:21.601Z,29.10
2018-11-06T08:24:21.593Z,29.60
2018-11-06T08:25:21.591Z,30.70
2018-11-06T08:26:21.595Z,29.80
2018-11-06T08:27:21.601Z,30.00
2018-11-06T08:28:21.597Z,31.10
2018-11-06T08:29:21.586Z,29.90
2018-11-06T08:30:21.827Z,28.80
2018-11-06T08:31:21.904Z,28.00
2018-11-06T08:32:21.891Z,27.80
2018-11-06T08:33:21.775Z,28.90
2018-11-06T08:34:21.583Z,27.20
2018-11-06T08:35:21.557Z,27.50
2018-11-06T08:36:21.591Z,28.20
2018-11-06T08:37:21.569Z,29.00
2018-11-06T08:38:21.579Z,30.20
2018-11-06T08:39:21.559Z,27.80
2018-11-06T08:40:21.560Z,27.20
2018-11-06T08:41:21.557Z,28.40
2018-11-06T08:42:21.793Z,28.80
2018-11-06T08:43:21.556Z,28.10
2018-11-06T08:44:21.555Z,27.90
2018-11-06T08:45:21.553Z,27.30
2018-11-06T08:46:21.538Z,28.20
2018-11-06T08:47:21.531Z,27.20
2018-11-06T08:48:21.557Z,26.60
2018-11-06T08:49:21.563Z,27.50
2018-11-06T08:50:21.573Z,26.70
2018-11-06T08:51:21.541Z,25.60
2018-11-06T08:52:21.559Z,26.50
2018-11-06T08:53:21.539Z,27.00
2018-11-06T08:54:21.573Z,27.60
2018-11-06T08:55:21.730Z,27.40
2018-11-06T08:56:21.717Z,26.30
2018-11-06T08:57:21.515Z,29.00
2018-11-06T08:58:21.521Z,30.90
2018-11-06T08:59:21.512Z,26.90
2018-11-06T09:00:21.507Z,25.30
2018-11-06T09:01:21.507Z,25.40
2018-11-06T09:02:21.757Z,26.00
2018-11-06T09:03:21.503Z,24.40
2018-11-06T09:04:21.503Z,26.40
2018-11-06T09:05:21.499Z,26.30
2018-11-06T09:06:21.514Z,26.50
2018-11-06T09:07:21.495Z,26.80
2018-11-06T09:08:21.505Z,26.30
2018-11-06T09:09:21.508Z,26.50
2018-11-06T09:10:21.497Z,25.90
2018-11-06T09:11:21.692Z,25.90
2018-11-06T09:12:21.705Z,26.10
2018-11-06T09:13:21.488Z,25.60
2018-11-06T09:14:21.482Z,26.80
2018-11-06T09:15:21.480Z,26.10
2018-11-06T09:16:21.490Z,25.50
2018-11-06T09:17:21.492Z,25.90
2018-11-06T09:18:21.474Z,26.40
2018-11-06T09:19:21.475Z,26.30
2018-11-06T09:20:21.482Z,27.20
2018-11-06T09:21:21.472Z,26.20
2018-11-06T09:22:21.469Z,25.50
2018-11-06T09:23:21.480Z,25.50
2018-11-06T09:24:21.464Z,25.20
2018-11-06T09:25:21.476Z,25.20
2018-11-06T09:26:21.467Z,23.90
2018-11-06T09:27:21.471Z,24.20
2018-11-06T09:28:21.674Z,23.50
2018-11-06T09:29:21.460Z,24.40
2018-11-06T09:30:21.484Z,23.10
2018-11-06T09:31:21.463Z,22.40
2018-11-06T09:32:21.463Z,22.10
2018-11-06T09:33:21.453Z,22.60
2018-11-06T09:34:21.459Z,21.80
2018-11-06T09:35:21.463Z,21.50
2018-11-06T09:36:21.451Z,21.40
2018-11-06T09:37:21.468Z,21.60
2018-11-06T09:38:21.463Z,22.00
2018-11-06T09:39:21.454Z,21.70
2018-11-06T09:40:21.440Z,21.40
2018-11-06T09:41:21.537Z,20.10
2018-11-06T09:42:21.437Z,20.60
2018-11-06T09:43:21.434Z,19.20
2018-11-06T09:44:21.441Z,19.60
2018-11-06T09:45:21.502Z,19.20
2018-11-06T09:46:21.462Z,18.90
2018-11-06T09:47:21.431Z,20.70
2018-11-06T09:48:21.441Z,19.40
2018-11-06T09:49:21.439Z,19.10
2018-11-06T09:50:21.439Z,19.50
2018-11-06T09:51:21.421Z,18.80
2018-11-06T09:52:21.637Z,19.90
2018-11-06T09:53:21.421Z,19.50
2018-11-06T09:54:21.419Z,19.20
2018-11-06T09:55:21.418Z,18.10
2018-11-06T09:56:21.618Z,18.60
2018-11-06T09:57:21.414Z,18.40
2018-11-06T09:58:21.422Z,18.40
2018-11-06T09:59:21.409Z,18.50
2018-11-06T10:00:21.443Z,17.40
2018-11-06T10:01:21.407Z,17.30
2018-11-06T10:02:21.611Z,16.70
2018-11-06T10:03:21.608Z,16.90
2018-11-06T10:04:21.404Z,17.00
2018-11-06T10:05:21.407Z,16.20
2018-11-06T10:06:21.527Z,15.90
2018-11-06T10:07:21.624Z,14.90
2018-11-06T10:08:21.400Z,15.20
2018-11-06T10:09:21.490Z,14.60
2018-11-06T10:10:21.396Z,15.00
2018-11-06T10:11:21.406Z,14.40
2018-11-06T10:12:21.406Z,14.20
2018-11-06T10:13:21.412Z,14.30
2018-11-06T10:14:21.390Z,14.50
2018-11-06T10:15:21.390Z,13.70
2018-11-06T10:16:21.399Z,13.20
2018-11-06T10:17:21.401Z,14.00
2018-11-06T10:18:21.397Z,13.70
2018-11-06T10:19:21.402Z,14.10
2018-11-06T10:20:21.395Z,13.80
2018-11-06T10:21:21.437Z,13.20
2018-11-06T10:22:21.425Z,13.30
2018-11-06T10:23:21.416Z,13.30
2018-11-06T10:24:21.393Z,14.10
2018-11-06T10:25:21.390Z,13.80
2018-11-06T10:26:21.592Z,14.10
2018-11-06T10:27:21.391Z,13.90
2018-11-06T10:28:21.373Z,13.40
2018-11-06T10:29:21.373Z,13.30
2018-11-06T10:30:21.373Z,13.90
2018-11-06T10:31:21.584Z,13.60
2018-11-06T10:32:21.373Z,13.40
2018-11-06T10:33:21.370Z,12.80
2018-11-06T10:34:21.371Z,12.10
2018-11-06T10:35:21.369Z,13.00
2018-11-06T10:36:21.364Z,12.50
2018-11-06T10:37:21.365Z,13.00
2018-11-06T10:38:21.392Z,12.40
2018-11-06T10:39:21.364Z,11.30
2018-11-06T10:40:21.366Z,10.90
2018-11-06T10:41:21.360Z,12.00
2018-11-06T10:42:21.362Z,11.70
2018-11-06T10:43:21.358Z,11.10
2018-11-06T10:44:21.582Z,10.80
2018-11-06T10:45:21.357Z,11.00
2018-11-06T10:46:21.358Z,10.30
2018-11-06T10:47:21.355Z,10.80
2018-11-06T10:48:21.356Z,11.70
2018-11-06T10:49:21.356Z,11.50
2018-11-06T10:50:21.364Z,11.60
2018-11-06T10:51:21.366Z,10.90
2018-11-06T10:52:21.351Z,11.60
2018-11-06T10:53:21.383Z,11.10
2018-11-06T10:54:21.348Z,10.90
2018-11-06T10:55:21.347Z,11.30
2018-11-06T10:56:21.346Z,10.90
2018-11-06T10:57:21.344Z,10.70
2018-11-06T10:58:21.345Z,10.80
2018-11-06T10:59:21.348Z,10.80
2018-11-06T11:00:21.346Z,9.50
2018-11-06T11:01:21.342Z,9.80
2018-11-06T11:02:21.344Z,10.30
2018-11-06T11:03:21.543Z,9.40
2018-11-06T11:04:21.389Z,9.30
2018-11-06T11:05:21.343Z,9.90
2018-11-06T11:06:21.348Z,9.90
2018-11-06T11:07:21.349Z,9.60
2018-11-06T11:08:21.351Z,9.20
2018-11-06T11:09:21.539Z,9.80
2018-11-06T11:10:21.336Z,8.90
2018-11-06T11:11:21.334Z,9.00
2018-11-06T11:12:21.333Z,9.00
2018-11-06T11:13:21.391Z,8.60
2018-11-06T11:14:21.344Z,9.30
2018-11-06T11:15:21.331Z,8.70
2018-11-06T11:16:21.332Z,8.90
2018-11-06T11:17:21.341Z,9.00
2018-11-06T11:18:21.342Z,8.90
2018-11-06T11:19:21.341Z,9.30
2018-11-06T11:20:21.512Z,7.80
2018-11-06T11:21:21.329Z,9.20
2018-11-06T11:22:21.329Z,8.60
2018-11-06T11:23:21.329Z,8.10
2018-11-06T11:24:21.329Z,7.80
2018-11-06T11:25:21.356Z,8.50
2018-11-06T11:26:21.326Z,8.30
2018-11-06T11:27:21.353Z,8.40
2018-11-06T11:28:21.349Z,7.50
2018-11-06T11:29:21.334Z,7.90
2018-11-06T11:30:21.323Z,7.30
2018-11-06T11:31:21.333Z,7.40
2018-11-06T11:32:21.334Z,7.80
2018-11-06T11:33:21.332Z,6.80
2018-11-06T11:34:21.332Z,7.30
2018-11-06T11:35:21.339Z,6.90
2018-11-06T11:36:21.330Z,7.70
2018-11-06T11:37:21.320Z,7.30
2018-11-06T11:38:21.323Z,7.10
2018-11-06T11:39:21.519Z,7.00
2018-11-06T11:40:21.335Z,6.50
2018-11-06T11:41:21.317Z,7.30
2018-11-06T11:42:21.331Z,7.10
2018-11-06T11:43:21.318Z,7.00
2018-11-06T11:44:21.329Z,6.20
2018-11-06T11:45:21.317Z,6.60
2018-11-06T11:46:21.318Z,7.30
2018-11-06T11:47:21.314Z,6.50
2018-11-06T11:48:21.316Z,7.30
2018-11-06T11:49:21.339Z,6.90
2018-11-06T11:50:21.328Z,6.90
2018-11-06T11:51:21.324Z,7.00
2018-11-06T11:52:21.319Z,7.40
2018-11-06T11:53:21.330Z,7.20
2018-11-06T11:54:21.316Z,6.60
2018-11-06T11:55:21.316Z,6.20
2018-11-06T11:56:21.311Z,6.90
2018-11-06T11:57:21.328Z,6.30
2018-11-06T11:58:21.326Z,6.30
2018-11-06T11:59:21.311Z,5.70
2018-11-06T12:00:21.311Z,6.20
2018-11-06T12:01:21.529Z,5.90
2018-11-06T12:02:21.415Z,5.60
2018-11-06T12:03:21.312Z,5.80
2018-11-06T12:04:21.309Z,5.40
2018-11-06T12:05:21.311Z,5.50
2018-11-06T12:06:21.310Z,5.20
2018-11-06T12:07:21.515Z,5.90
2018-11-06T12:08:21.309Z,5.60
2018-11-06T12:09:21.325Z,5.50
2018-11-06T12:10:21.313Z,5.40
2018-11-06T12:11:21.312Z,5.20
2018-11-06T12:12:21.321Z,5.30
2018-11-06T12:13:21.309Z,4.70
2018-11-06T12:14:21.319Z,5.10
2018-11-06T12:15:21.308Z,5.20
2018-11-06T12:16:21.310Z,5.70
2018-11-06T12:17:21.383Z,5.10
2018-11-06T12:18:21.458Z,5.10
2018-11-06T12:19:21.323Z,4.80
2018-11-06T12:20:21.310Z,4.60
2018-11-06T12:21:21.511Z,4.10
2018-11-06T12:22:21.322Z,4.50
2018-11-06T12:23:21.309Z,4.40
2018-11-06T12:24:21.395Z,4.70
2018-11-06T12:25:21.541Z,5.10
2018-11-06T12:26:21.310Z,5.30
2018-11-06T12:27:21.322Z,4.80
2018-11-06T12:28:21.320Z,4.70
2018-11-06T12:29:21.314Z,5.10
2018-11-06T12:30:21.313Z,4.70
2018-11-06T12:31:21.318Z,5.40
2018-11-06T12:32:21.326Z,4.80
2018-11-06T12:33:21.319Z,5.30
2018-11-06T12:34:21.313Z,5.00
2018-11-06T12:35:21.334Z,4.80
2018-11-06T12:36:21.370Z,5.10
2018-11-06T12:37:21.311Z,4.60
2018-11-06T12:38:21.323Z,5.30
2018-11-06T12:39:21.524Z,4.20
2018-11-06T12:40:21.310Z,5.10
2018-11-06T12:41:21.311Z,4.70
2018-11-06T12:42:21.310Z,4.90
2018-11-06T12:43:21.342Z,4.80
2018-11-06T12:44:21.330Z,4.60
2018-11-06T12:45:21.322Z,5.00
2018-11-06T12:46:21.313Z,4.60
2018-11-06T12:47:21.316Z,4.50
2018-11-06T12:48:21.513Z,4.40
2018-11-06T12:49:21.314Z,3.60
2018-11-06T12:50:21.431Z,4.10
2018-11-06T12:51:21.326Z,4.50
2018-11-06T12:52:21.317Z,4.10
2018-11-06T12:53:21.342Z,4.40
2018-11-06T12:54:21.338Z,4.30
2018-11-06T12:55:21.313Z,4.00
2018-11-06T12:56:21.456Z,4.30
2018-11-06T12:57:21.328Z,4.80